Valverde — ICHJ — position and weather

sailwx.info

Track history (hours):
 
Tides and Currents Weather Stations Pressure Air Temp Water Temp Dewpoint Dewpoint Depression Visibility Wind Speed Wind Dir Waves Ship Positions

Valverde

Last reported at 2018-May-18 22:12 UTC. Time now 2018-May-21 06:33 UTC.
Position N 48°39' W 010°58'.

Length 185 m; draft 10.8 m.

Type: Ship. MMSI: 247227900.

Date/timePositionNaut miles runAvg speedWind from/ knotsBaromVisibWave heightAir tempDewpointWater temp
2018-May-18 22:12N 48°39' W 010°58'313.8
2018-May-18 22:00N 48°40' W 010°54'713.6
2018-May-18 21:30N 48°41' W 010°44'813.5
2018-May-18 20:56N 48°43' W 010°33'613.5
2018-May-18 20:30N 48°44' W 010°24'813.5
2018-May-18 19:56N 48°46' W 010°13'613.1
2018-May-18 19:30N 48°47' W 010°05'812.7
2018-May-18 18:53N 48°49' W 009°53'912.3
2018-May-18 18:06N 48°52' W 009°39'112.4
2018-May-18 18:00N 48°52' W 009°37'612.2
2018-May-18 17:29N 48°53' W 009°28'612.4
2018-May-18 17:00N 48°55' W 009°19'612.3
2018-May-18 16:30N 48°56' W 009°10'4613.1
2018-May-18 12:57N 49°07' W 008°01'613.8
2018-May-18 12:30N 49°08' W 007°52'2914.0
2018-May-18 10:26N 49°15' W 007°08'613.8
2018-May-18 10:00N 49°16' W 006°60'713.7
2018-May-18 09:30N 49°18' W 006°49'713.3
2018-May-18 09:00N 49°19' W 006°39'611.5
2018-May-18 08:30N 49°21' W 006°31'712.7
2018-May-18 07:59N 49°22' W 006°21'612.4
2018-May-18 07:30N 49°24' W 006°12'611.1
2018-May-18 07:00N 49°26' W 006°04'510.5
2018-May-18 06:30N 49°26' W 005°56'611.8
2018-May-18 06:00N 49°29' W 005°48'612.0
2018-May-18 05:30N 49°30' W 005°39'612.2
2018-May-18 05:00N 49°32' W 005°30'612.5
2018-May-18 04:30N 49°33' W 005°21'612.7
2018-May-18 04:01N 49°35' W 005°11'713.1
2018-May-18 03:30N 49°37' W 005°01'713.6
2018-May-18 03:00N 49°39' W 004°51'714.1
2018-May-18 02:30N 49°40' W 004°41'714.5
2018-May-18 02:00N 49°42' W 004°30'814.8
2018-May-18 01:27N 49°44' W 004°18'914.9
2018-May-18 00:52N 49°47' W 004°05'714.8
2018-May-18 00:24N 49°49' W 003°54'614.5
2018-May-18 00:00N 49°50' W 003°46'714.1
2018-May-17 23:31N 49°52' W 003°35'713.5
2018-May-17 23:00N 49°54' W 003°25'613.0
2018-May-17 22:31N 49°56' W 003°16'612.2
2018-May-17 22:01N 49°58' W 003°07'611.5
2018-May-17 21:31N 49°60' W 002°58'611.0
2018-May-17 21:01N 50°01' W 002°50'510.8
2018-May-17 20:30N 50°03' W 002°42'510.8
2018-May-17 20:00N 50°04' W 002°34'510.9
2018-May-17 19:30N 50°06' W 002°25'611.4
2018-May-17 19:00N 50°07' W 002°17'612.0
2018-May-17 18:30N 50°09' W 002°08'613.0
2018-May-17 18:00N 50°10' W 001°58'714.0
2018-May-17 17:30N 50°12' W 001°48'815.0
2018-May-17 17:00N 50°14' W 001°36'815.7
2018-May-17 16:30N 50°16' W 001°25'816.3
2018-May-17 16:00N 50°19' W 001°12'917.5
2018-May-17 15:31N 50°21' W 000°59'917.1
2018-May-17 15:00N 50°23' W 000°46'816.2
2018-May-17 14:30N 50°25' W 000°34'714.9
2018-May-17 14:00N 50°27' W 000°22'713.9
2018-May-17 13:30N 50°28' W 000°12'713.8
2018-May-17 13:00N 50°30' W 000°01'713.3
2018-May-17 12:30N 50°32' E 000°09'612.6
2018-May-17 12:00N 50°34' E 000°18'612.0
2018-May-17 11:30N 50°35' E 000°27'611.5
2018-May-17 11:00N 50°37' E 000°36'611.4
2018-May-17 10:30N 50°40' E 000°44'611.8
2018-May-17 10:00N 50°43' E 000°51'612.6
2018-May-17 09:30N 50°47' E 000°60'713.1
2018-May-17 08:59N 50°51' E 001°09'1114.9
2018-May-17 08:14N 50°58' E 001°22'415.7
2018-May-17 08:01N 51°01' E 001°25'815.7
2018-May-17 07:30N 51°06' E 001°34'815.3
2018-May-17 07:00N 51°12' E 001°43'713.9
2018-May-17 06:30N 51°17' E 001°50'713.5
2018-May-17 06:00N 51°23' E 001°56'5 9.8
2018-May-17 05:30N 51°25' E 002°03'612.9
2018-May-17 05:00N 51°22' E 002°12'611.7
2018-May-17 04:30N 51°21' E 002°21'612.1
2018-May-17 04:00N 51°23' E 002°31'611.7
2018-May-17 03:30N 51°23' E 002°40'510.0
2018-May-17 02:58N 51°22' E 002°48'510.7
2018-May-17 02:30N 51°23' E 002°56'5 9.8
2018-May-17 02:00N 51°25' E 003°04'5 9.9
2018-May-17 01:30N 51°24' E 003°12'5 9.3
2018-May-17 01:00N 51°24' E 003°19'4 8.9
2018-May-17 00:30N 51°25' E 003°26'5 9.8
2018-May-17 00:00N 51°26' E 003°34'4 8.2
2018-May-16 23:31N 51°27' E 003°40'5 9.8
2018-May-16 23:00N 51°22' E 003°44'5 9.9
2018-May-16 22:30N 51°21' E 003°52'510.0
2018-May-16 22:00N 51°25' E 003°58'3 6.0
2018-May-16 21:30N 51°24' E 004°02'5 9.8
2018-May-16 21:00N 51°23' E 004°10'4 7.3
2018-May-16 20:30N 51°21' E 004°15'1 3.0
2018-May-16 20:01N 51°21' E 004°17'0 0.0
2018-May-16 19:30N 51°21' E 004°17'0 0.0
2018-May-16 19:00N 51°21' E 004°17'0 0.0
2018-May-16 18:30N 51°21' E 004°17'2 3.4
2018-May-16 18:01N 51°19' E 004°19'2 3.7
2018-May-16 17:27N 51°18' E 004°20'0 0.0
2018-May-16 17:00N 51°18' E 004°20'0 0.0
2018-May-16 16:30N 51°18' E 004°20'0 0.0
2018-May-16 16:00N 51°18' E 004°20'0 0.0
2018-May-16 15:30N 51°18' E 004°20'0 0.0
2018-May-16 15:00N 51°18' E 004°20'0 0.0
2018-May-16 14:30N 51°18' E 004°20'0 0.0
2018-May-16 14:00N 51°18' E 004°20'0 0.0
2018-May-16 13:30N 51°18' E 004°20'0 0.0
2018-May-16 13:00N 51°18' E 004°20'0 0.0
2018-May-16 12:30N 51°18' E 004°20'0 0.0
2018-May-16 12:00N 51°18' E 004°20'0 0.0
2018-May-16 11:30N 51°18' E 004°20'0 0.0
2018-May-16 11:00N 51°18' E 004°20'0 0.0
2018-May-16 10:30N 51°18' E 004°20'0 0.0
2018-May-16 10:00N 51°18' E 004°20'0 0.0
2018-May-16 09:30N 51°18' E 004°20'0 0.0
2018-May-16 09:00N 51°18' E 004°20'0 0.0
2018-May-16 08:30N 51°18' E 004°20'0 0.0
2018-May-16 08:00N 51°18' E 004°20'0 0.0
2018-May-16 07:30N 51°18' E 004°20'0 0.0
2018-May-16 07:00N 51°18' E 004°20'0 0.0
2018-May-16 06:30N 51°18' E 004°20'0 0.0
2018-May-16 06:00N 51°18' E 004°20'0 0.0
2018-May-16 05:30N 51°18' E 004°20'0 0.0
2018-May-16 05:00N 51°18' E 004°20'0 0.0
2018-May-16 04:30N 51°18' E 004°20'0 0.0
2018-May-16 04:00N 51°18' E 004°20'0 0.0
2018-May-16 03:27N 51°18' E 004°20'0 0.0
2018-May-16 03:00N 51°18' E 004°20'0 0.0
2018-May-16 02:27N 51°18' E 004°20'0 0.0
2018-May-16 02:00N 51°18' E 004°20'0 0.0
2018-May-16 01:30N 51°18' E 004°20'0 0.0
2018-May-16 00:57N 51°18' E 004°20'0 0.0
2018-May-16 00:30N 51°18' E 004°20'0 0.0
2018-May-15 23:54N 51°18' E 004°20'0 0.0
2018-May-15 23:30N 51°18' E 004°20'0 0.0
2018-May-15 22:54N 51°18' E 004°20'0 0.0
2018-May-15 22:30N 51°18' E 004°20'0 0.0
2018-May-15 22:00N 51°18' E 004°20'0 0.0
2018-May-15 21:30N 51°18' E 004°20'0 0.0
2018-May-15 21:00N 51°18' E 004°20'0 0.0
2018-May-15 20:27N 51°18' E 004°20'0 0.0
2018-May-15 20:00N 51°18' E 004°20'0 0.0
2018-May-15 19:30N 51°18' E 004°20'0 0.0
2018-May-15 18:57N 51°18' E 004°20'0 0.0
2018-May-15 18:30N 51°18' E 004°20'0 0.0
2018-May-15 17:54N 51°18' E 004°20'0 0.0
2018-May-15 17:30N 51°18' E 004°20'0 0.0
2018-May-15 17:00N 51°18' E 004°20'0 0.0
2018-May-15 16:30N 51°18' E 004°20'0 0.0
2018-May-15 16:00N 51°18' E 004°20'0 0.0
2018-May-15 15:30N 51°18' E 004°20'0 0.0
2018-May-15 15:00N 51°18' E 004°20'0 0.0
2018-May-15 14:30N 51°18' E 004°20'0 0.0
2018-May-15 14:00N 51°18' E 004°20'0 0.0
2018-May-15 13:30N 51°18' E 004°20'0 0.0
2018-May-15 13:00N 51°18' E 004°20'0 0.0
2018-May-15 12:30N 51°18' E 004°20'0 0.0
2018-May-15 12:00N 51°18' E 004°20'0 0.0
2018-May-15 11:30N 51°18' E 004°20'0 0.0
2018-May-15 11:00N 51°18' E 004°20'0 0.0
2018-May-15 10:30N 51°18' E 004°20'0 0.0
2018-May-15 09:54N 51°18' E 004°20'0 0.0
2018-May-15 09:30N 51°18' E 004°20'0 0.0
2018-May-15 09:00N 51°18' E 004°20'0 0.0
2018-May-15 08:24N 51°18' E 004°20'0 0.0
2018-May-15 08:00N 51°18' E 004°20'0 0.0
2018-May-15 07:30N 51°18' E 004°20'0 0.0
2018-May-15 07:00N 51°18' E 004°20'0 0.0
2018-May-15 06:30N 51°18' E 004°20'0 0.0
2018-May-15 06:00N 51°18' E 004°20'0 0.0
2018-May-15 05:30N 51°18' E 004°20'0 0.0
2018-May-15 05:00N 51°18' E 004°20'0 0.0
2018-May-15 04:27N 51°18' E 004°20'0 0.0
2018-May-15 04:00N 51°18' E 004°20'0 0.0
2018-May-15 03:30N 51°18' E 004°20'0 0.0
2018-May-15 03:00N 51°18' E 004°20'0 0.0
2018-May-15 02:30N 51°18' E 004°20'0 0.0
2018-May-15 02:00N 51°18' E 004°20'0 0.0
2018-May-15 01:30N 51°18' E 004°20'0 0.0
2018-May-15 01:00N 51°18' E 004°20'0 0.0
2018-May-15 00:30N 51°18' E 004°20'0 0.0
2018-May-14 23:57N 51°18' E 004°20'0 0.0
2018-May-14 23:30N 51°18' E 004°20'0 0.0
2018-May-14 23:00N 51°18' E 004°20'0 0.0
2018-May-14 22:30N 51°18' E 004°20'0 0.0
2018-May-14 22:00N 51°18' E 004°20'0 0.0
2018-May-14 21:30N 51°18' E 004°20'0 0.0
2018-May-14 20:57N 51°18' E 004°20'0 0.0
2018-May-14 20:27N 51°18' E 004°20'0 0.0
2018-May-14 20:00N 51°18' E 004°20'0 0.0
2018-May-14 19:30N 51°18' E 004°20'0 0.0
2018-May-14 18:57N 51°18' E 004°20'0 0.0
2018-May-14 18:27N 51°18' E 004°20'0 0.0
2018-May-14 17:57N 51°18' E 004°20'0 0.0
2018-May-14 17:30N 51°18' E 004°20'0 0.0
2018-May-14 17:00N 51°18' E 004°20'0 0.0
2018-May-14 16:30N 51°18' E 004°20'0 0.0
2018-May-14 16:00N 51°18' E 004°20'0 0.0
2018-May-14 15:24N 51°18' E 004°20'0 0.0
2018-May-14 15:00N 51°18' E 004°20'0 0.0
2018-May-14 14:30N 51°18' E 004°20'0 0.0
2018-May-14 13:57N 51°18' E 004°20'0 0.0
2018-May-14 13:30N 51°18' E 004°20'0 0.0
2018-May-14 13:00N 51°18' E 004°20'0 0.0
2018-May-14 12:30N 51°18' E 004°20'0 0.0
2018-May-14 11:51N 51°18' E 004°20'0 0.0
2018-May-14 11:30N 51°18' E 004°20'0 0.0
2018-May-14 11:00N 51°18' E 004°20'0 0.0
2018-May-14 10:24N 51°18' E 004°20'0 0.0
2018-May-14 10:00N 51°18' E 004°20'0 0.0
2018-May-14 09:30N 51°18' E 004°20'0 0.0
2018-May-14 08:54N 51°18' E 004°20'0 0.0
2018-May-14 08:30N 51°18' E 004°20'0 0.0
2018-May-14 08:00N 51°18' E 004°20'0 0.0
2018-May-14 07:30N 51°18' E 004°20'0 0.0
2018-May-14 07:00N 51°18' E 004°20'0 0.0
2018-May-14 06:30N 51°18' E 004°20'0 0.0
2018-May-14 06:00N 51°18' E 004°20'0 0.0
2018-May-14 05:30N 51°18' E 004°20'0 0.0
2018-May-14 05:00N 51°18' E 004°20'0 0.1
2018-May-14 04:30N 51°18' E 004°20'0 0.0
2018-May-14 04:00N 51°18' E 004°20'0 0.0
2018-May-14 03:30N 51°18' E 004°20'0 0.0
2018-May-14 03:00N 51°18' E 004°20'0 0.0
2018-May-14 02:27N 51°18' E 004°20'0 0.0
2018-May-14 01:54N 51°18' E 004°20'0 0.0
2018-May-14 01:27N 51°18' E 004°20'0 0.0
2018-May-14 00:54N 51°18' E 004°20'0 0.0
2018-May-14 00:18N 51°18' E 004°20'0 0.0
2018-May-13 23:51N 51°18' E 004°20'0 0.0
2018-May-13 23:27N 51°18' E 004°20'0 0.0
2018-May-13 23:00N 51°18' E 004°20'0 0.0
2018-May-13 22:27N 51°18' E 004°20'0 0.0
2018-May-13 21:57N 51°18' E 004°20'0 0.0
2018-May-13 21:30N 51°18' E 004°20'0 0.0
2018-May-13 20:57N 51°18' E 004°20'0 0.0
2018-May-13 20:30N 51°18' E 004°20'0 0.0
2018-May-13 20:00N 51°18' E 004°20'0 0.0
2018-May-13 19:27N 51°18' E 004°20'0 0.2
2018-May-13 19:00N 51°18' E 004°20'2 3.3
2018-May-13 18:30N 51°19' E 004°19'2 3.5
2018-May-13 17:57N 51°21' E 004°17'0 0.0
2018-May-13 17:30N 51°21' E 004°17'0 0.0
2018-May-13 17:01N 51°21' E 004°17'1 1.5
2018-May-13 16:30N 51°21' E 004°16'3 6.8
2018-May-13 16:00N 51°24' E 004°12'4 8.9
2018-May-13 15:31N 51°22' E 004°06'4 8.8
2018-May-13 15:00N 51°26' E 004°01'4 8.0
2018-May-13 14:30N 51°23' E 003°57'510.4
2018-May-13 14:00N 51°21' E 003°49'510.7
2018-May-13 13:30N 51°24' E 003°43'5 9.7
2018-May-13 13:00N 51°26' E 003°35'4 8.2
2018-May-13 12:30N 51°25' E 003°29'612.4
2018-May-13 12:00N 51°24' E 003°19'712.9
2018-May-13 11:30N 51°24' E 003°08'612.4
2018-May-13 11:00N 51°25' E 002°59'612.1
2018-May-13 10:29N 51°25' E 002°48'611.4
2018-May-13 10:00N 51°22' E 002°41'4 8.2
2018-May-13 09:28N 51°26' E 002°38'0 0.2
2018-May-13 08:58N 51°26' E 002°38'0 0.2
2018-May-13 08:28N 51°26' E 002°38'0 0.1
2018-May-13 07:59N 51°26' E 002°37'0 0.0
2018-May-13 07:28N 51°26' E 002°37'0 0.0
2018-May-13 06:59N 51°26' E 002°37'0 0.0
2018-May-13 06:19N 51°26' E 002°37'0 0.0
2018-May-13 05:58N 51°26' E 002°37'0 0.1
2018-May-13 05:28N 51°26' E 002°37'0 0.2
2018-May-13 04:58N 51°26' E 002°38'2 5.0
2018-May-13 04:29N 51°28' E 002°34'612.7
2018-May-13 03:59N 51°34' E 002°37'612.9
2018-May-13 03:30N 51°40' E 002°38'712.3
2018-May-13 02:58N 51°47' E 002°37'811.5
2018-May-13 02:15N 51°55' E 002°38'711.7
2018-May-13 01:41N 51°60' E 002°44'411.6
2018-May-13 01:22N 52°03' E 002°48'1311.7
2018-May-13 00:14N 52°13' E 003°02'311.6
2018-May-12 23:56N 52°15' E 003°06'611.6
2018-May-12 23:25N 52°20' E 003°12'511.7
2018-May-12 23:01N 52°24' E 003°17'612.3
2018-May-12 22:30N 52°26' E 003°26'612.8
2018-May-12 22:00N 52°29' E 003°36'713.1
2018-May-12 21:30N 52°31' E 003°46'613.2
2018-May-12 21:00N 52°31' E 003°57'713.2
2018-May-12 20:30N 52°31' E 004°08'713.3
2018-May-12 20:00N 52°30' E 004°19'611.9
2018-May-12 19:30N 52°29' E 004°28'5 9.8
2018-May-12 19:00N 52°28' E 004°36'0 0.8
2018-May-12 18:31N 52°28' E 004°37'2 3.3
2018-May-12 18:01N 52°28' E 004°39'4 7.5
2018-May-12 17:30N 52°26' E 004°45'4 7.2
2018-May-12 17:00N 52°25' E 004°50'0 0.9
2018-May-12 16:30N 52°25' E 004°51'0 0.0
2018-May-12 16:00N 52°25' E 004°51'0 0.0
2018-May-12 15:30N 52°25' E 004°51'0 0.0
2018-May-12 15:00N 52°25' E 004°51'0 0.0
2018-May-12 14:30N 52°25' E 004°51'0 0.0
2018-May-12 14:00N 52°25' E 004°51'0 0.0
2018-May-12 13:30N 52°25' E 004°51'0 0.0
2018-May-12 13:00N 52°25' E 004°51'0 0.0
2018-May-12 12:30N 52°25' E 004°51'0 0.0
2018-May-12 12:00N 52°25' E 004°51'0 0.0
2018-May-12 11:30N 52°25' E 004°51'0 0.0
2018-May-12 11:00N 52°25' E 004°51'0 0.0
2018-May-12 10:30N 52°25' E 004°51'0 0.0
2018-May-12 10:00N 52°25' E 004°51'0 0.0
2018-May-12 09:30N 52°25' E 004°51'0 0.0
2018-May-12 09:00N 52°25' E 004°51'0 0.0
2018-May-12 08:30N 52°25' E 004°51'0 0.0
2018-May-12 08:00N 52°25' E 004°51'0 0.0
2018-May-12 07:30N 52°25' E 004°51'0 0.0
2018-May-12 07:00N 52°25' E 004°51'0 0.0
2018-May-12 06:30N 52°25' E 004°51'0 0.0
2018-May-12 06:00N 52°25' E 004°51'0 0.0
2018-May-12 05:30N 52°25' E 004°51'0 0.0
2018-May-12 05:00N 52°25' E 004°51'0 0.0
2018-May-12 04:30N 52°25' E 004°51'0 0.0
2018-May-12 04:00N 52°25' E 004°51'0 0.0
2018-May-12 03:30N 52°25' E 004°51'0 0.0
2018-May-12 02:57N 52°25' E 004°51'0 0.0
2018-May-12 02:30N 52°25' E 004°51'0 0.0
2018-May-12 02:00N 52°25' E 004°51'0 0.0
2018-May-12 01:30N 52°25' E 004°51'0 0.1
2018-May-12 01:00N 52°25' E 004°51'0 0.0
2018-May-12 00:30N 52°25' E 004°51'0 0.0
2018-May-12 00:00N 52°25' E 004°51'0 0.1
2018-May-11 23:30N 52°25' E 004°51'0 0.1
2018-May-11 23:00N 52°25' E 004°51'0 0.0
2018-May-11 22:30N 52°25' E 004°51'0 0.0
2018-May-11 22:00N 52°25' E 004°51'0 0.0
2018-May-11 21:29N 52°25' E 004°51'0 0.0
2018-May-11 20:56N 52°25' E 004°51'0 0.0
2018-May-11 20:29N 52°25' E 004°51'0 0.0
2018-May-11 19:59N 52°25' E 004°51'0 0.0
2018-May-11 19:29N 52°25' E 004°51'0 0.0
2018-May-11 18:59N 52°25' E 004°51'0 0.0
2018-May-11 18:29N 52°25' E 004°51'0 0.0
2018-May-11 17:59N 52°25' E 004°51'0 0.0
2018-May-11 17:29N 52°25' E 004°51'0 0.0
2018-May-11 16:59N 52°25' E 004°51'0 0.0
2018-May-11 16:29N 52°25' E 004°51'0 0.0
2018-May-11 15:59N 52°25' E 004°51'0 0.0
2018-May-11 15:29N 52°25' E 004°51'0 0.0
2018-May-11 14:59N 52°25' E 004°51'0 0.0
2018-May-11 14:29N 52°25' E 004°51'0 0.0
2018-May-11 13:59N 52°25' E 004°51'0 0.0
2018-May-11 13:29N 52°25' E 004°51'0 0.0
2018-May-11 12:59N 52°25' E 004°51'0 0.0
2018-May-11 12:29N 52°25' E 004°51'0 0.0
2018-May-11 11:59N 52°25' E 004°51'0 0.0
2018-May-11 11:29N 52°25' E 004°51'0 0.0
2018-May-11 10:59N 52°25' E 004°51'0 0.0
2018-May-11 10:29N 52°25' E 004°51'0 0.0
2018-May-11 09:59N 52°25' E 004°51'0 0.0
2018-May-11 09:26N 52°25' E 004°51'0 0.0
2018-May-11 08:59N 52°25' E 004°51'0 0.0
2018-May-11 08:30N 52°25' E 004°51'0 0.0
2018-May-11 08:00N 52°25' E 004°51'0 0.0
2018-May-11 07:30N 52°25' E 004°51'0 0.0
2018-May-11 07:00N 52°25' E 004°51'0 0.0
2018-May-11 06:30N 52°25' E 004°51'0 0.0
2018-May-11 06:00N 52°25' E 004°51'0 0.0
2018-May-11 05:30N 52°25' E 004°51'0 0.0
2018-May-11 05:00N 52°25' E 004°51'0 0.0
2018-May-11 04:30N 52°25' E 004°51'0 0.0
2018-May-11 04:00N 52°25' E 004°51'0 0.0
2018-May-11 03:30N 52°25' E 004°51'0 0.0
2018-May-11 03:00N 52°25' E 004°51'0 0.0
2018-May-11 02:30N 52°25' E 004°51'0 0.0
2018-May-11 02:00N 52°25' E 004°51'0 0.0
2018-May-11 01:30N 52°25' E 004°51'0 0.0
2018-May-11 00:57N 52°25' E 004°51'0 0.0
2018-May-11 00:30N 52°25' E 004°51'0 0.0
2018-May-11 00:00N 52°25' E 004°51'0 0.0
2018-May-10 23:30N 52°25' E 004°51'0 0.0
2018-May-10 23:00N 52°25' E 004°51'0 0.0
2018-May-10 22:30N 52°25' E 004°51'0 0.0
2018-May-10 22:00N 52°25' E 004°51'0 0.0
2018-May-10 21:30N 52°25' E 004°51'0 0.0
2018-May-10 21:00N 52°25' E 004°51'0 0.0
2018-May-10 20:30N 52°25' E 004°51'0 0.0
2018-May-10 20:00N 52°25' E 004°51'0 0.0
2018-May-10 19:30N 52°25' E 004°51'0 0.0
2018-May-10 19:00N 52°25' E 004°51'0 0.0
2018-May-10 18:30N 52°25' E 004°51'0 0.0
2018-May-10 18:00N 52°25' E 004°51'1 1.1
2018-May-10 17:30N 52°25' E 004°50'1 3.0
2018-May-10 17:01N 52°24' E 004°49'0 0.2
2018-May-10 16:29N 52°24' E 004°49'0 0.0
2018-May-10 15:56N 52°24' E 004°49'0 0.0
2018-May-10 15:29N 52°24' E 004°49'0 0.0
2018-May-10 14:58N 52°24' E 004°49'0 0.0
2018-May-10 14:29N 52°24' E 004°49'0 0.0
2018-May-10 13:59N 52°24' E 004°49'0 0.0
2018-May-10 13:29N 52°24' E 004°49'0 0.0
2018-May-10 12:59N 52°24' E 004°49'0 0.0
2018-May-10 12:29N 52°24' E 004°49'0 0.0
2018-May-10 11:59N 52°24' E 004°49'0 0.0
2018-May-10 11:29N 52°24' E 004°49'0 0.0
2018-May-10 10:59N 52°24' E 004°49'0 0.0
2018-May-10 10:28N 52°24' E 004°49'0 0.0
2018-May-10 09:59N 52°24' E 004°49'0 0.0
2018-May-10 09:29N 52°24' E 004°49'0 0.0
2018-May-10 08:56N 52°24' E 004°49'0 0.0
2018-May-10 08:29N 52°24' E 004°49'0 0.0
2018-May-10 07:58N 52°24' E 004°49'0 0.0
2018-May-10 07:29N 52°24' E 004°49'0 0.0
2018-May-10 06:59N 52°24' E 004°49'0 0.0
2018-May-10 06:29N 52°24' E 004°49'0 0.0
2018-May-10 05:59N 52°24' E 004°49'0 0.0
2018-May-10 05:29N 52°24' E 004°49'0 0.0
2018-May-10 04:59N 52°24' E 004°49'0 0.0
2018-May-10 04:29N 52°24' E 004°49'0 0.0
2018-May-10 03:59N 52°24' E 004°49'0 0.0
2018-May-10 03:29N 52°24' E 004°49'0 0.0
2018-May-10 02:59N 52°24' E 004°49'0 0.0
2018-May-10 02:29N 52°24' E 004°49'0 0.0
2018-May-10 01:59N 52°24' E 004°49'0 0.0
2018-May-10 01:29N 52°24' E 004°49'0 0.0
2018-May-10 00:59N 52°24' E 004°49'0 0.0
2018-May-10 00:29N 52°24' E 004°49'0 0.0
2018-May-09 23:58N 52°24' E 004°49'0 0.0
2018-May-09 23:30N 52°24' E 004°49'0 0.3
2018-May-09 23:00N 52°24' E 004°49'2 3.5
2018-May-09 22:31N 52°25' E 004°48'1 3.0
2018-May-09 22:00N 52°24' E 004°47'0 0.2
2018-May-09 21:28N 52°24' E 004°47'0 0.0
2018-May-09 20:58N 52°24' E 004°47'0 0.0
2018-May-09 20:28N 52°24' E 004°47'0 0.0
2018-May-09 19:58N 52°24' E 004°47'0 0.0
2018-May-09 19:28N 52°24' E 004°47'0 0.0
2018-May-09 18:58N 52°24' E 004°47'0 0.0
2018-May-09 18:28N 52°24' E 004°47'0 0.0
2018-May-09 17:58N 52°24' E 004°47'0 0.0
2018-May-09 17:28N 52°24' E 004°47'0 0.0
2018-May-09 16:58N 52°24' E 004°47'0 0.0
2018-May-09 16:28N 52°24' E 004°47'0 0.0
2018-May-09 15:58N 52°24' E 004°47'0 0.0
2018-May-09 15:25N 52°24' E 004°47'0 0.0
2018-May-09 14:58N 52°24' E 004°47'0 0.0
2018-May-09 14:28N 52°24' E 004°47'0 0.0
2018-May-09 13:58N 52°24' E 004°47'0 0.0
2018-May-09 13:28N 52°24' E 004°47'0 0.0
2018-May-09 12:58N 52°24' E 004°47'0 0.0
2018-May-09 12:28N 52°24' E 004°47'0 0.0
2018-May-09 11:58N 52°24' E 004°47'0 0.0
2018-May-09 11:28N 52°24' E 004°47'0 0.0
2018-May-09 10:58N 52°24' E 004°47'0 0.0
2018-May-09 10:28N 52°24' E 004°47'0 0.0
2018-May-09 09:58N 52°24' E 004°47'0 0.0
2018-May-09 09:28N 52°24' E 004°47'0 0.0
2018-May-09 08:58N 52°24' E 004°47'0 0.0
2018-May-09 08:28N 52°24' E 004°47'0 0.0
2018-May-09 07:58N 52°24' E 004°47'0 0.0
2018-May-09 07:28N 52°24' E 004°47'0 0.0
2018-May-09 06:58N 52°24' E 004°47'0 0.1
2018-May-09 06:28N 52°24' E 004°47'0 0.0
2018-May-09 05:58N 52°24' E 004°47'0 0.0
2018-May-09 05:28N 52°24' E 004°47'0 0.0
2018-May-09 04:58N 52°24' E 004°47'0 0.0
2018-May-09 04:28N 52°24' E 004°47'0 0.0
2018-May-09 03:58N 52°24' E 004°47'0 0.0
2018-May-09 03:28N 52°24' E 004°47'0 0.0
2018-May-09 02:58N 52°24' E 004°47'0 0.0
2018-May-09 02:28N 52°24' E 004°47'0 0.0
2018-May-09 01:58N 52°24' E 004°47'0 0.0
2018-May-09 01:28N 52°24' E 004°47'0 0.0
2018-May-09 00:58N 52°24' E 004°47'0 0.0
2018-May-09 00:25N 52°24' E 004°47'0 0.0
2018-May-08 23:58N 52°24' E 004°47'0 0.0
2018-May-08 23:28N 52°24' E 004°47'0 0.0
2018-May-08 22:58N 52°24' E 004°47'0 0.0
2018-May-08 22:28N 52°24' E 004°47'  
Track history (hours):
 
Tides and Currents Weather Stations Pressure Air Temp Water Temp Dewpoint Dewpoint Depression Visibility Wind Speed Wind Dir Waves Ship Positions

Valverde

Last reported at 2018-May-18 22:12 UTC. Time now 2018-May-21 06:33 UTC.
Position N 48°39' W 010°58'.

Length 185 m; draft 10.8 m.

Type: Ship. MMSI: 247227900.

Date/timePositionNaut miles runAvg speedWind from/ knotsBaromVisibWave heightAir tempDewpointWater temp
2018-May-18 22:12N 48°39' W 010°58'313.8
2018-May-18 22:00N 48°40' W 010°54'713.6
2018-May-18 21:30N 48°41' W 010°44'813.5
2018-May-18 20:56N 48°43' W 010°33'613.5
2018-May-18 20:30N 48°44' W 010°24'813.5
2018-May-18 19:56N 48°46' W 010°13'613.1
2018-May-18 19:30N 48°47' W 010°05'812.7
2018-May-18 18:53N 48°49' W 009°53'912.3
2018-May-18 18:06N 48°52' W 009°39'112.4
2018-May-18 18:00N 48°52' W 009°37'612.2
2018-May-18 17:29N 48°53' W 009°28'612.4
2018-May-18 17:00N 48°55' W 009°19'612.3
2018-May-18 16:30N 48°56' W 009°10'4613.1
2018-May-18 12:57N 49°07' W 008°01'613.8
2018-May-18 12:30N 49°08' W 007°52'2914.0
2018-May-18 10:26N 49°15' W 007°08'613.8
2018-May-18 10:00N 49°16' W 006°60'713.7
2018-May-18 09:30N 49°18' W 006°49'713.3
2018-May-18 09:00N 49°19' W 006°39'611.5
2018-May-18 08:30N 49°21' W 006°31'712.7
2018-May-18 07:59N 49°22' W 006°21'612.4
2018-May-18 07:30N 49°24' W 006°12'611.1
2018-May-18 07:00N 49°26' W 006°04'510.5
2018-May-18 06:30N 49°26' W 005°56'611.8
2018-May-18 06:00N 49°29' W 005°48'612.0
2018-May-18 05:30N 49°30' W 005°39'612.2
2018-May-18 05:00N 49°32' W 005°30'612.5
2018-May-18 04:30N 49°33' W 005°21'612.7
2018-May-18 04:01N 49°35' W 005°11'713.1
2018-May-18 03:30N 49°37' W 005°01'713.6
2018-May-18 03:00N 49°39' W 004°51'714.1
2018-May-18 02:30N 49°40' W 004°41'714.5
2018-May-18 02:00N 49°42' W 004°30'814.8
2018-May-18 01:27N 49°44' W 004°18'914.9
2018-May-18 00:52N 49°47' W 004°05'714.8
2018-May-18 00:24N 49°49' W 003°54'614.5
2018-May-18 00:00N 49°50' W 003°46'714.1
2018-May-17 23:31N 49°52' W 003°35'713.5
2018-May-17 23:00N 49°54' W 003°25'613.0
2018-May-17 22:31N 49°56' W 003°16'612.2
2018-May-17 22:01N 49°58' W 003°07'611.5
2018-May-17 21:31N 49°60' W 002°58'611.0
2018-May-17 21:01N 50°01' W 002°50'510.8
2018-May-17 20:30N 50°03' W 002°42'510.8
2018-May-17 20:00N 50°04' W 002°34'510.9
2018-May-17 19:30N 50°06' W 002°25'611.4
2018-May-17 19:00N 50°07' W 002°17'612.0
2018-May-17 18:30N 50°09' W 002°08'613.0
2018-May-17 18:00N 50°10' W 001°58'714.0
2018-May-17 17:30N 50°12' W 001°48'815.0
2018-May-17 17:00N 50°14' W 001°36'815.7
2018-May-17 16:30N 50°16' W 001°25'816.3
2018-May-17 16:00N 50°19' W 001°12'917.5
2018-May-17 15:31N 50°21' W 000°59'917.1
2018-May-17 15:00N 50°23' W 000°46'816.2
2018-May-17 14:30N 50°25' W 000°34'714.9
2018-May-17 14:00N 50°27' W 000°22'713.9
2018-May-17 13:30N 50°28' W 000°12'713.8
2018-May-17 13:00N 50°30' W 000°01'713.3
2018-May-17 12:30N 50°32' E 000°09'612.6
2018-May-17 12:00N 50°34' E 000°18'612.0
2018-May-17 11:30N 50°35' E 000°27'611.5
2018-May-17 11:00N 50°37' E 000°36'611.4
2018-May-17 10:30N 50°40' E 000°44'611.8
2018-May-17 10:00N 50°43' E 000°51'612.6
2018-May-17 09:30N 50°47' E 000°60'713.1
2018-May-17 08:59N 50°51' E 001°09'1114.9
2018-May-17 08:14N 50°58' E 001°22'415.7
2018-May-17 08:01N 51°01' E 001°25'815.7
2018-May-17 07:30N 51°06' E 001°34'815.3
2018-May-17 07:00N 51°12' E 001°43'713.9
2018-May-17 06:30N 51°17' E 001°50'713.5
2018-May-17 06:00N 51°23' E 001°56'5 9.8
2018-May-17 05:30N 51°25' E 002°03'612.9
2018-May-17 05:00N 51°22' E 002°12'611.7
2018-May-17 04:30N 51°21' E 002°21'612.1
2018-May-17 04:00N 51°23' E 002°31'611.7
2018-May-17 03:30N 51°23' E 002°40'510.0
2018-May-17 02:58N 51°22' E 002°48'510.7
2018-May-17 02:30N 51°23' E 002°56'5 9.8
2018-May-17 02:00N 51°25' E 003°04'5 9.9
2018-May-17 01:30N 51°24' E 003°12'5 9.3
2018-May-17 01:00N 51°24' E 003°19'4 8.9
2018-May-17 00:30N 51°25' E 003°26'5 9.8
2018-May-17 00:00N 51°26' E 003°34'4 8.2
2018-May-16 23:31N 51°27' E 003°40'5 9.8
2018-May-16 23:00N 51°22' E 003°44'5 9.9
2018-May-16 22:30N 51°21' E 003°52'510.0
2018-May-16 22:00N 51°25' E 003°58'3 6.0
2018-May-16 21:30N 51°24' E 004°02'5 9.8
2018-May-16 21:00N 51°23' E 004°10'4 7.3
2018-May-16 20:30N 51°21' E 004°15'1 3.0
2018-May-16 20:01N 51°21' E 004°17'0 0.0
2018-May-16 19:30N 51°21' E 004°17'0 0.0
2018-May-16 19:00N 51°21' E 004°17'0 0.0
2018-May-16 18:30N 51°21' E 004°17'2 3.4
2018-May-16 18:01N 51°19' E 004°19'2 3.7
2018-May-16 17:27N 51°18' E 004°20'0 0.0
2018-May-16 17:00N 51°18' E 004°20'0 0.0
2018-May-16 16:30N 51°18' E 004°20'0 0.0
2018-May-16 16:00N 51°18' E 004°20'0 0.0
2018-May-16 15:30N 51°18' E 004°20'0 0.0
2018-May-16 15:00N 51°18' E 004°20'0 0.0
2018-May-16 14:30N 51°18' E 004°20'0 0.0
2018-May-16 14:00N 51°18' E 004°20'0 0.0
2018-May-16 13:30N 51°18' E 004°20'0 0.0
2018-May-16 13:00N 51°18' E 004°20'0 0.0
2018-May-16 12:30N 51°18' E 004°20'0 0.0
2018-May-16 12:00N 51°18' E 004°20'0 0.0
2018-May-16 11:30N 51°18' E 004°20'0 0.0
2018-May-16 11:00N 51°18' E 004°20'0 0.0
2018-May-16 10:30N 51°18' E 004°20'0 0.0
2018-May-16 10:00N 51°18' E 004°20'0 0.0
2018-May-16 09:30N 51°18' E 004°20'0 0.0
2018-May-16 09:00N 51°18' E 004°20'0 0.0
2018-May-16 08:30N 51°18' E 004°20'0 0.0
2018-May-16 08:00N 51°18' E 004°20'0 0.0
2018-May-16 07:30N 51°18' E 004°20'0 0.0
2018-May-16 07:00N 51°18' E 004°20'0 0.0
2018-May-16 06:30N 51°18' E 004°20'0 0.0
2018-May-16 06:00N 51°18' E 004°20'0 0.0
2018-May-16 05:30N 51°18' E 004°20'0 0.0
2018-May-16 05:00N 51°18' E 004°20'0 0.0
2018-May-16 04:30N 51°18' E 004°20'0 0.0
2018-May-16 04:00N 51°18' E 004°20'0 0.0
2018-May-16 03:27N 51°18' E 004°20'0 0.0
2018-May-16 03:00N 51°18' E 004°20'0 0.0
2018-May-16 02:27N 51°18' E 004°20'0 0.0
2018-May-16 02:00N 51°18' E 004°20'0 0.0
2018-May-16 01:30N 51°18' E 004°20'0 0.0
2018-May-16 00:57N 51°18' E 004°20'0 0.0
2018-May-16 00:30N 51°18' E 004°20'0 0.0
2018-May-15 23:54N 51°18' E 004°20'0 0.0
2018-May-15 23:30N 51°18' E 004°20'0 0.0
2018-May-15 22:54N 51°18' E 004°20'0 0.0
2018-May-15 22:30N 51°18' E 004°20'0 0.0
2018-May-15 22:00N 51°18' E 004°20'0 0.0
2018-May-15 21:30N 51°18' E 004°20'0 0.0
2018-May-15 21:00N 51°18' E 004°20'0 0.0
2018-May-15 20:27N 51°18' E 004°20'0 0.0
2018-May-15 20:00N 51°18' E 004°20'0 0.0
2018-May-15 19:30N 51°18' E 004°20'0 0.0
2018-May-15 18:57N 51°18' E 004°20'0 0.0
2018-May-15 18:30N 51°18' E 004°20'0 0.0
2018-May-15 17:54N 51°18' E 004°20'0 0.0
2018-May-15 17:30N 51°18' E 004°20'0 0.0
2018-May-15 17:00N 51°18' E 004°20'0 0.0
2018-May-15 16:30N 51°18' E 004°20'0 0.0
2018-May-15 16:00N 51°18' E 004°20'0 0.0
2018-May-15 15:30N 51°18' E 004°20'0 0.0
2018-May-15 15:00N 51°18' E 004°20'0 0.0
2018-May-15 14:30N 51°18' E 004°20'0 0.0
2018-May-15 14:00N 51°18' E 004°20'0 0.0
2018-May-15 13:30N 51°18' E 004°20'0 0.0
2018-May-15 13:00N 51°18' E 004°20'0 0.0
2018-May-15 12:30N 51°18' E 004°20'0 0.0
2018-May-15 12:00N 51°18' E 004°20'0 0.0
2018-May-15 11:30N 51°18' E 004°20'0 0.0
2018-May-15 11:00N 51°18' E 004°20'0 0.0
2018-May-15 10:30N 51°18' E 004°20'0 0.0
2018-May-15 09:54N 51°18' E 004°20'0 0.0
2018-May-15 09:30N 51°18' E 004°20'0 0.0
2018-May-15 09:00N 51°18' E 004°20'0 0.0
2018-May-15 08:24N 51°18' E 004°20'0 0.0
2018-May-15 08:00N 51°18' E 004°20'0 0.0
2018-May-15 07:30N 51°18' E 004°20'0 0.0
2018-May-15 07:00N 51°18' E 004°20'0 0.0
2018-May-15 06:30N 51°18' E 004°20'0 0.0
2018-May-15 06:00N 51°18' E 004°20'0 0.0
2018-May-15 05:30N 51°18' E 004°20'0 0.0
2018-May-15 05:00N 51°18' E 004°20'0 0.0
2018-May-15 04:27N 51°18' E 004°20'0 0.0
2018-May-15 04:00N 51°18' E 004°20'0 0.0
2018-May-15 03:30N 51°18' E 004°20'0 0.0
2018-May-15 03:00N 51°18' E 004°20'0 0.0
2018-May-15 02:30N 51°18' E 004°20'0 0.0
2018-May-15 02:00N 51°18' E 004°20'0 0.0
2018-May-15 01:30N 51°18' E 004°20'0 0.0
2018-May-15 01:00N 51°18' E 004°20'0 0.0
2018-May-15 00:30N 51°18' E 004°20'0 0.0
2018-May-14 23:57N 51°18' E 004°20'0 0.0
2018-May-14 23:30N 51°18' E 004°20'0 0.0
2018-May-14 23:00N 51°18' E 004°20'0 0.0
2018-May-14 22:30N 51°18' E 004°20'0 0.0
2018-May-14 22:00N 51°18' E 004°20'0 0.0
2018-May-14 21:30N 51°18' E 004°20'0 0.0
2018-May-14 20:57N 51°18' E 004°20'0 0.0
2018-May-14 20:27N 51°18' E 004°20'0 0.0
2018-May-14 20:00N 51°18' E 004°20'0 0.0
2018-May-14 19:30N 51°18' E 004°20'0 0.0
2018-May-14 18:57N 51°18' E 004°20'0 0.0
2018-May-14 18:27N 51°18' E 004°20'0 0.0
2018-May-14 17:57N 51°18' E 004°20'0 0.0
2018-May-14 17:30N 51°18' E 004°20'0 0.0
2018-May-14 17:00N 51°18' E 004°20'0 0.0
2018-May-14 16:30N 51°18' E 004°20'0 0.0
2018-May-14 16:00N 51°18' E 004°20'0 0.0
2018-May-14 15:24N 51°18' E 004°20'0 0.0
2018-May-14 15:00N 51°18' E 004°20'0 0.0
2018-May-14 14:30N 51°18' E 004°20'0 0.0
2018-May-14 13:57N 51°18' E 004°20'0 0.0
2018-May-14 13:30N 51°18' E 004°20'0 0.0
2018-May-14 13:00N 51°18' E 004°20'0 0.0
2018-May-14 12:30N 51°18' E 004°20'0 0.0
2018-May-14 11:51N 51°18' E 004°20'0 0.0
2018-May-14 11:30N 51°18' E 004°20'0 0.0
2018-May-14 11:00N 51°18' E 004°20'0 0.0
2018-May-14 10:24N 51°18' E 004°20'0 0.0
2018-May-14 10:00N 51°18' E 004°20'0 0.0
2018-May-14 09:30N 51°18' E 004°20'0 0.0
2018-May-14 08:54N 51°18' E 004°20'0 0.0
2018-May-14 08:30N 51°18' E 004°20'0 0.0
2018-May-14 08:00N 51°18' E 004°20'0 0.0
2018-May-14 07:30N 51°18' E 004°20'0 0.0
2018-May-14 07:00N 51°18' E 004°20'0 0.0
2018-May-14 06:30N 51°18' E 004°20'0 0.0
2018-May-14 06:00N 51°18' E 004°20'0 0.0
2018-May-14 05:30N 51°18' E 004°20'0 0.0
2018-May-14 05:00N 51°18' E 004°20'0 0.1
2018-May-14 04:30N 51°18' E 004°20'0 0.0
2018-May-14 04:00N 51°18' E 004°20'0 0.0
2018-May-14 03:30N 51°18' E 004°20'0 0.0
2018-May-14 03:00N 51°18' E 004°20'0 0.0
2018-May-14 02:27N 51°18' E 004°20'0 0.0
2018-May-14 01:54N 51°18' E 004°20'0 0.0
2018-May-14 01:27N 51°18' E 004°20'0 0.0
2018-May-14 00:54N 51°18' E 004°20'0 0.0
2018-May-14 00:18N 51°18' E 004°20'0 0.0
2018-May-13 23:51N 51°18' E 004°20'0 0.0
2018-May-13 23:27N 51°18' E 004°20'0 0.0
2018-May-13 23:00N 51°18' E 004°20'0 0.0
2018-May-13 22:27N 51°18' E 004°20'0 0.0
2018-May-13 21:57N 51°18' E 004°20'0 0.0
2018-May-13 21:30N 51°18' E 004°20'0 0.0
2018-May-13 20:57N 51°18' E 004°20'0 0.0
2018-May-13 20:30N 51°18' E 004°20'0 0.0
2018-May-13 20:00N 51°18' E 004°20'0 0.0
2018-May-13 19:27N 51°18' E 004°20'0 0.2
2018-May-13 19:00N 51°18' E 004°20'2 3.3
2018-May-13 18:30N 51°19' E 004°19'2 3.5
2018-May-13 17:57N 51°21' E 004°17'0 0.0
2018-May-13 17:30N 51°21' E 004°17'0 0.0
2018-May-13 17:01N 51°21' E 004°17'1 1.5
2018-May-13 16:30N 51°21' E 004°16'3 6.8
2018-May-13 16:00N 51°24' E 004°12'4 8.9
2018-May-13 15:31N 51°22' E 004°06'4 8.8
2018-May-13 15:00N 51°26' E 004°01'4 8.0
2018-May-13 14:30N 51°23' E 003°57'510.4
2018-May-13 14:00N 51°21' E 003°49'510.7
2018-May-13 13:30N 51°24' E 003°43'5 9.7
2018-May-13 13:00N 51°26' E 003°35'4 8.2
2018-May-13 12:30N 51°25' E 003°29'612.4
2018-May-13 12:00N 51°24' E 003°19'712.9
2018-May-13 11:30N 51°24' E 003°08'612.4
2018-May-13 11:00N 51°25' E 002°59'612.1
2018-May-13 10:29N 51°25' E 002°48'611.4
2018-May-13 10:00N 51°22' E 002°41'4 8.2
2018-May-13 09:28N 51°26' E 002°38'0 0.2
2018-May-13 08:58N 51°26' E 002°38'0 0.2
2018-May-13 08:28N 51°26' E 002°38'0 0.1
2018-May-13 07:59N 51°26' E 002°37'0 0.0
2018-May-13 07:28N 51°26' E 002°37'0 0.0
2018-May-13 06:59N 51°26' E 002°37'0 0.0
2018-May-13 06:19N 51°26' E 002°37'0 0.0
2018-May-13 05:58N 51°26' E 002°37'0 0.1
2018-May-13 05:28N 51°26' E 002°37'0 0.2
2018-May-13 04:58N 51°26' E 002°38'2 5.0
2018-May-13 04:29N 51°28' E 002°34'612.7
2018-May-13 03:59N 51°34' E 002°37'612.9
2018-May-13 03:30N 51°40' E 002°38'712.3
2018-May-13 02:58N 51°47' E 002°37'811.5
2018-May-13 02:15N 51°55' E 002°38'711.7
2018-May-13 01:41N 51°60' E 002°44'411.6
2018-May-13 01:22N 52°03' E 002°48'1311.7
2018-May-13 00:14N 52°13' E 003°02'311.6
2018-May-12 23:56N 52°15' E 003°06'611.6
2018-May-12 23:25N 52°20' E 003°12'511.7
2018-May-12 23:01N 52°24' E 003°17'612.3
2018-May-12 22:30N 52°26' E 003°26'612.8
2018-May-12 22:00N 52°29' E 003°36'713.1
2018-May-12 21:30N 52°31' E 003°46'613.2
2018-May-12 21:00N 52°31' E 003°57'713.2
2018-May-12 20:30N 52°31' E 004°08'713.3
2018-May-12 20:00N 52°30' E 004°19'611.9
2018-May-12 19:30N 52°29' E 004°28'5 9.8
2018-May-12 19:00N 52°28' E 004°36'0 0.8
2018-May-12 18:31N 52°28' E 004°37'2 3.3
2018-May-12 18:01N 52°28' E 004°39'4 7.5
2018-May-12 17:30N 52°26' E 004°45'4 7.2
2018-May-12 17:00N 52°25' E 004°50'0 0.9
2018-May-12 16:30N 52°25' E 004°51'0 0.0
2018-May-12 16:00N 52°25' E 004°51'0 0.0
2018-May-12 15:30N 52°25' E 004°51'0 0.0
2018-May-12 15:00N 52°25' E 004°51'0 0.0
2018-May-12 14:30N 52°25' E 004°51'0 0.0
2018-May-12 14:00N 52°25' E 004°51'0 0.0
2018-May-12 13:30N 52°25' E 004°51'0 0.0
2018-May-12 13:00N 52°25' E 004°51'0 0.0
2018-May-12 12:30N 52°25' E 004°51'0 0.0
2018-May-12 12:00N 52°25' E 004°51'0 0.0
2018-May-12 11:30N 52°25' E 004°51'0 0.0
2018-May-12 11:00N 52°25' E 004°51'0 0.0
2018-May-12 10:30N 52°25' E 004°51'0 0.0
2018-May-12 10:00N 52°25' E 004°51'0 0.0
2018-May-12 09:30N 52°25' E 004°51'0 0.0
2018-May-12 09:00N 52°25' E 004°51'0 0.0
2018-May-12 08:30N 52°25' E 004°51'0 0.0
2018-May-12 08:00N 52°25' E 004°51'0 0.0
2018-May-12 07:30N 52°25' E 004°51'0 0.0
2018-May-12 07:00N 52°25' E 004°51'0 0.0
2018-May-12 06:30N 52°25' E 004°51'0 0.0
2018-May-12 06:00N 52°25' E 004°51'0 0.0
2018-May-12 05:30N 52°25' E 004°51'0 0.0
2018-May-12 05:00N 52°25' E 004°51'0 0.0
2018-May-12 04:30N 52°25' E 004°51'0 0.0
2018-May-12 04:00N 52°25' E 004°51'0 0.0
2018-May-12 03:30N 52°25' E 004°51'0 0.0
2018-May-12 02:57N 52°25' E 004°51'0 0.0
2018-May-12 02:30N 52°25' E 004°51'0 0.0
2018-May-12 02:00N 52°25' E 004°51'0 0.0
2018-May-12 01:30N 52°25' E 004°51'0 0.1
2018-May-12 01:00N 52°25' E 004°51'0 0.0
2018-May-12 00:30N 52°25' E 004°51'0 0.0
2018-May-12 00:00N 52°25' E 004°51'0 0.1
2018-May-11 23:30N 52°25' E 004°51'0 0.1
2018-May-11 23:00N 52°25' E 004°51'0 0.0
2018-May-11 22:30N 52°25' E 004°51'0 0.0
2018-May-11 22:00N 52°25' E 004°51'0 0.0
2018-May-11 21:29N 52°25' E 004°51'0 0.0
2018-May-11 20:56N 52°25' E 004°51'0 0.0
2018-May-11 20:29N 52°25' E 004°51'0 0.0
2018-May-11 19:59N 52°25' E 004°51'0 0.0
2018-May-11 19:29N 52°25' E 004°51'0 0.0
2018-May-11 18:59N 52°25' E 004°51'0 0.0
2018-May-11 18:29N 52°25' E 004°51'0 0.0
2018-May-11 17:59N 52°25' E 004°51'0 0.0
2018-May-11 17:29N 52°25' E 004°51'0 0.0
2018-May-11 16:59N 52°25' E 004°51'0 0.0
2018-May-11 16:29N 52°25' E 004°51'0 0.0
2018-May-11 15:59N 52°25' E 004°51'0 0.0
2018-May-11 15:29N 52°25' E 004°51'0 0.0
2018-May-11 14:59N 52°25' E 004°51'0 0.0
2018-May-11 14:29N 52°25' E 004°51'0 0.0
2018-May-11 13:59N 52°25' E 004°51'0 0.0
2018-May-11 13:29N 52°25' E 004°51'0 0.0
2018-May-11 12:59N 52°25' E 004°51'0 0.0
2018-May-11 12:29N 52°25' E 004°51'0 0.0
2018-May-11 11:59N 52°25' E 004°51'0 0.0
2018-May-11 11:29N 52°25' E 004°51'0 0.0
2018-May-11 10:59N 52°25' E 004°51'0 0.0
2018-May-11 10:29N 52°25' E 004°51'0 0.0
2018-May-11 09:59N 52°25' E 004°51'0 0.0
2018-May-11 09:26N 52°25' E 004°51'0 0.0
2018-May-11 08:59N 52°25' E 004°51'0 0.0
2018-May-11 08:30N 52°25' E 004°51'0 0.0
2018-May-11 08:00N 52°25' E 004°51'0 0.0
2018-May-11 07:30N 52°25' E 004°51'0 0.0
2018-May-11 07:00N 52°25' E 004°51'0 0.0
2018-May-11 06:30N 52°25' E 004°51'0 0.0
2018-May-11 06:00N 52°25' E 004°51'0 0.0
2018-May-11 05:30N 52°25' E 004°51'0 0.0
2018-May-11 05:00N 52°25' E 004°51'0 0.0
2018-May-11 04:30N 52°25' E 004°51'0 0.0
2018-May-11 04:00N 52°25' E 004°51'0 0.0
2018-May-11 03:30N 52°25' E 004°51'0 0.0
2018-May-11 03:00N 52°25' E 004°51'0 0.0
2018-May-11 02:30N 52°25' E 004°51'0 0.0
2018-May-11 02:00N 52°25' E 004°51'0 0.0
2018-May-11 01:30N 52°25' E 004°51'0 0.0
2018-May-11 00:57N 52°25' E 004°51'0 0.0
2018-May-11 00:30N 52°25' E 004°51'0 0.0
2018-May-11 00:00N 52°25' E 004°51'0 0.0
2018-May-10 23:30N 52°25' E 004°51'0 0.0
2018-May-10 23:00N 52°25' E 004°51'0 0.0
2018-May-10 22:30N 52°25' E 004°51'0 0.0
2018-May-10 22:00N 52°25' E 004°51'0 0.0
2018-May-10 21:30N 52°25' E 004°51'0 0.0
2018-May-10 21:00N 52°25' E 004°51'0 0.0
2018-May-10 20:30N 52°25' E 004°51'0 0.0
2018-May-10 20:00N 52°25' E 004°51'0 0.0
2018-May-10 19:30N 52°25' E 004°51'0 0.0
2018-May-10 19:00N 52°25' E 004°51'0 0.0
2018-May-10 18:30N 52°25' E 004°51'0 0.0
2018-May-10 18:00N 52°25' E 004°51'1 1.1
2018-May-10 17:30N 52°25' E 004°50'1 3.0
2018-May-10 17:01N 52°24' E 004°49'0 0.2
2018-May-10 16:29N 52°24' E 004°49'0 0.0
2018-May-10 15:56N 52°24' E 004°49'0 0.0
2018-May-10 15:29N 52°24' E 004°49'0 0.0
2018-May-10 14:58N 52°24' E 004°49'0 0.0
2018-May-10 14:29N 52°24' E 004°49'0 0.0
2018-May-10 13:59N 52°24' E 004°49'0 0.0
2018-May-10 13:29N 52°24' E 004°49'0 0.0
2018-May-10 12:59N 52°24' E 004°49'0 0.0
2018-May-10 12:29N 52°24' E 004°49'0 0.0
2018-May-10 11:59N 52°24' E 004°49'0 0.0
2018-May-10 11:29N 52°24' E 004°49'0 0.0
2018-May-10 10:59N 52°24' E 004°49'0 0.0
2018-May-10 10:28N 52°24' E 004°49'0 0.0
2018-May-10 09:59N 52°24' E 004°49'0 0.0
2018-May-10 09:29N 52°24' E 004°49'0 0.0
2018-May-10 08:56N 52°24' E 004°49'0 0.0
2018-May-10 08:29N 52°24' E 004°49'0 0.0
2018-May-10 07:58N 52°24' E 004°49'0 0.0
2018-May-10 07:29N 52°24' E 004°49'0 0.0
2018-May-10 06:59N 52°24' E 004°49'0 0.0
2018-May-10 06:29N 52°24' E 004°49'0 0.0
2018-May-10 05:59N 52°24' E 004°49'0 0.0
2018-May-10 05:29N 52°24' E 004°49'0 0.0
2018-May-10 04:59N 52°24' E 004°49'0 0.0
2018-May-10 04:29N 52°24' E 004°49'0 0.0
2018-May-10 03:59N 52°24' E 004°49'0 0.0
2018-May-10 03:29N 52°24' E 004°49'0 0.0
2018-May-10 02:59N 52°24' E 004°49'0 0.0
2018-May-10 02:29N 52°24' E 004°49'0 0.0
2018-May-10 01:59N 52°24' E 004°49'0 0.0
2018-May-10 01:29N 52°24' E 004°49'0 0.0
2018-May-10 00:59N 52°24' E 004°49'0 0.0
2018-May-10 00:29N 52°24' E 004°49'0 0.0
2018-May-09 23:58N 52°24' E 004°49'0 0.0
2018-May-09 23:30N 52°24' E 004°49'0 0.3
2018-May-09 23:00N 52°24' E 004°49'2 3.5
2018-May-09 22:31N 52°25' E 004°48'1 3.0
2018-May-09 22:00N 52°24' E 004°47'0 0.2
2018-May-09 21:28N 52°24' E 004°47'0 0.0
2018-May-09 20:58N 52°24' E 004°47'0 0.0
2018-May-09 20:28N 52°24' E 004°47'0 0.0
2018-May-09 19:58N 52°24' E 004°47'0 0.0
2018-May-09 19:28N 52°24' E 004°47'0 0.0
2018-May-09 18:58N 52°24' E 004°47'0 0.0
2018-May-09 18:28N 52°24' E 004°47'0 0.0
2018-May-09 17:58N 52°24' E 004°47'0 0.0
2018-May-09 17:28N 52°24' E 004°47'0 0.0
2018-May-09 16:58N 52°24' E 004°47'0 0.0
2018-May-09 16:28N 52°24' E 004°47'0 0.0
2018-May-09 15:58N 52°24' E 004°47'0 0.0
2018-May-09 15:25N 52°24' E 004°47'0 0.0
2018-May-09 14:58N 52°24' E 004°47'0 0.0
2018-May-09 14:28N 52°24' E 004°47'0 0.0
2018-May-09 13:58N 52°24' E 004°47'0 0.0
2018-May-09 13:28N 52°24' E 004°47'0 0.0
2018-May-09 12:58N 52°24' E 004°47'0 0.0
2018-May-09 12:28N 52°24' E 004°47'0 0.0
2018-May-09 11:58N 52°24' E 004°47'0 0.0
2018-May-09 11:28N 52°24' E 004°47'0 0.0
2018-May-09 10:58N 52°24' E 004°47'0 0.0
2018-May-09 10:28N 52°24' E 004°47'0 0.0
2018-May-09 09:58N 52°24' E 004°47'0 0.0
2018-May-09 09:28N 52°24' E 004°47'0 0.0
2018-May-09 08:58N 52°24' E 004°47'0 0.0
2018-May-09 08:28N 52°24' E 004°47'0 0.0
2018-May-09 07:58N 52°24' E 004°47'0 0.0
2018-May-09 07:28N 52°24' E 004°47'0 0.0
2018-May-09 06:58N 52°24' E 004°47'0 0.1
2018-May-09 06:28N 52°24' E 004°47'0 0.0
2018-May-09 05:58N 52°24' E 004°47'0 0.0
2018-May-09 05:28N 52°24' E 004°47'0 0.0
2018-May-09 04:58N 52°24' E 004°47'0 0.0
2018-May-09 04:28N 52°24' E 004°47'0 0.0
2018-May-09 03:58N 52°24' E 004°47'0 0.0
2018-May-09 03:28N 52°24' E 004°47'0 0.0
2018-May-09 02:58N 52°24' E 004°47'0 0.0
2018-May-09 02:28N 52°24' E 004°47'0 0.0
2018-May-09 01:58N 52°24' E 004°47'0 0.0
2018-May-09 01:28N 52°24' E 004°47'0 0.0
2018-May-09 00:58N 52°24' E 004°47'0 0.0
2018-May-09 00:25N 52°24' E 004°47'0 0.0
2018-May-08 23:58N 52°24' E 004°47'0 0.0
2018-May-08 23:28N 52°24' E 004°47'0 0.0
2018-May-08 22:58N 52°24' E 004°47'0 0.0
2018-May-08 22:28N 52°24' E 004°47'  

Dump ship's entire track history